createdAt,value
2023-05-03T00:00:50.546Z,4.43
2023-05-03T00:06:52.455Z,4.43
2023-05-03T00:12:55.978Z,3.95
2023-05-03T00:18:58.454Z,4.70
2023-05-03T00:25:00.625Z,4.18
2023-05-03T00:31:10.481Z,4.00
2023-05-03T00:37:12.437Z,3.90
2023-05-03T00:43:14.356Z,4.43
2023-05-03T00:49:16.528Z,4.35
2023-05-03T00:55:18.623Z,3.97
2023-05-03T01:01:21.422Z,4.00
2023-05-03T01:07:44.998Z,3.97
2023-05-03T01:13:57.184Z,3.45
2023-05-03T01:20:16.790Z,3.65
2023-05-03T01:26:25.688Z,3.90
2023-05-03T01:32:41.544Z,3.50
2023-05-03T01:38:44.938Z,4.20
2023-05-03T01:44:48.591Z,4.45
2023-05-03T01:50:50.924Z,4.32
2023-05-03T01:56:53.387Z,3.95
2023-05-03T02:02:57.325Z,4.63
2023-05-03T02:08:59.811Z,3.75
2023-05-03T02:15:01.888Z,4.40
2023-05-03T02:21:05.323Z,4.50
2023-05-03T02:27:08.125Z,4.30
2023-05-03T02:33:10.595Z,3.97
2023-05-03T02:39:14.894Z,4.38
2023-05-03T02:45:17.600Z,3.80
2023-05-03T02:51:20.775Z,4.60
2023-05-03T02:57:23.200Z,5.03
2023-05-03T03:03:26.515Z,4.93
2023-05-03T03:09:29.805Z,4.50
2023-05-03T03:15:32.803Z,3.97
2023-05-03T03:21:36.728Z,4.07
2023-05-03T03:27:39.812Z,4.63
2023-05-03T03:33:43.445Z,4.75
2023-05-03T03:39:51.510Z,4.63
2023-05-03T03:45:54.524Z,5.18
2023-05-03T03:51:57.740Z,5.70
2023-05-03T03:58:00.304Z,4.82
2023-05-03T04:04:03.324Z,6.15
2023-05-03T04:10:06.967Z,5.70
2023-05-03T04:16:10.302Z,5.60
2023-05-03T04:22:13.099Z,5.97
2023-05-03T04:28:15.816Z,5.03
2023-05-03T04:34:22.382Z,5.63
2023-05-03T04:40:28.205Z,6.13
2023-05-03T04:46:41.396Z,6.10
2023-05-03T04:52:44.326Z,6.70
2023-05-03T04:58:47.723Z,5.03
2023-05-03T05:04:52.427Z,11.32
2023-05-03T05:10:56.111Z,14.43
2023-05-03T05:17:02.920Z,8.85
2023-05-03T05:23:05.306Z,9.63
2023-05-03T05:29:07.745Z,7.68
2023-05-03T05:35:10.903Z,8.77
2023-05-03T05:41:13.307Z,8.70
2023-05-03T05:47:17.942Z,7.88
2023-05-03T05:53:21.717Z,7.43
2023-05-03T05:59:31.548Z,7.15
2023-05-03T06:05:34.655Z,6.80
2023-05-03T06:11:38.325Z,7.18
2023-05-03T06:17:41.603Z,7.22
2023-05-03T06:23:43.918Z,6.53
2023-05-03T06:29:46.708Z,6.47
2023-05-03T06:35:49.310Z,5.82
2023-05-03T06:41:53.038Z,6.85
2023-05-03T06:47:55.410Z,5.90
2023-05-03T06:54:07.037Z,5.95
2023-05-03T07:00:11.696Z,5.10
2023-05-03T07:06:16.075Z,4.60
2023-05-03T07:12:18.629Z,4.63
2023-05-03T07:18:21.469Z,3.83
2023-05-03T07:24:26.293Z,3.67
2023-05-03T07:30:29.960Z,4.00
2023-05-03T07:36:32.638Z,4.18
2023-05-03T07:42:35.162Z,3.50
2023-05-03T07:48:37.615Z,2.83
2023-05-03T07:54:40.014Z,2.90
2023-05-03T08:00:42.838Z,2.90
2023-05-03T08:06:45.891Z,2.08
2023-05-03T08:12:48.537Z,2.58
2023-05-03T08:18:50.663Z,2.95
2023-05-03T08:24:53.931Z,1.90
2023-05-03T08:30:57.013Z,2.20
2023-05-03T08:36:59.642Z,1.98
2023-05-03T08:43:09.156Z,1.90
2023-05-03T08:49:13.953Z,2.20
2023-05-03T08:55:17.399Z,2.40
2023-05-03T09:01:20.888Z,2.70
2023-05-03T09:07:23.497Z,2.42
2023-05-03T09:13:34.191Z,2.75
2023-05-03T09:19:54.196Z,3.08
2023-05-03T09:25:56.791Z,2.80
2023-05-03T09:32:01.509Z,2.70
2023-05-03T09:38:04.099Z,2.83
2023-05-03T09:44:06.848Z,2.45
2023-05-03T09:50:09.455Z,2.75
2023-05-03T09:56:15.069Z,2.88
2023-05-03T10:02:18.182Z,3.15
2023-05-03T10:08:43.867Z,3.15
2023-05-03T10:14:47.882Z,3.28
2023-05-03T10:20:59.732Z,2.67
2023-05-03T10:27:02.320Z,2.70
2023-05-03T10:33:14.396Z,3.10
2023-05-03T10:39:19.037Z,3.05
2023-05-03T10:45:28.980Z,3.42
2023-05-03T10:51:37.614Z,2.75
2023-05-03T10:57:43.112Z,2.25
2023-05-03T11:04:10.572Z,2.50
2023-05-03T11:10:17.958Z,2.33
2023-05-03T11:16:20.874Z,2.17
2023-05-03T11:22:24.337Z,2.25
2023-05-03T11:28:27.075Z,2.38
2023-05-03T11:34:29.536Z,2.35
2023-05-03T11:40:32.235Z,2.53
2023-05-03T11:46:38.080Z,2.80
2023-05-03T11:52:42.099Z,3.30
2023-05-03T11:58:52.485Z,3.40
2023-05-03T12:04:57.210Z,2.80
2023-05-03T12:11:03.202Z,3.17
2023-05-03T12:17:07.460Z,3.15
2023-05-03T12:23:10.963Z,2.80
2023-05-03T12:29:14.251Z,3.33
2023-05-03T12:35:19.518Z,3.70
2023-05-03T12:41:52.191Z,3.88
2023-05-03T12:47:50.000Z,3.38
2023-05-03T12:53:55.061Z,3.28
2023-05-03T13:00:02.731Z,3.70
2023-05-03T13:12:18.278Z,3.08
2023-05-03T13:18:21.793Z,2.88
2023-05-03T13:24:24.144Z,3.03
2023-05-03T13:30:27.361Z,2.70
2023-05-03T13:36:29.898Z,3.10
2023-05-03T13:42:33.073Z,2.65
2023-05-03T13:48:35.898Z,2.65
2023-05-03T13:54:38.322Z,2.97
2023-05-03T14:00:40.934Z,2.83
2023-05-03T14:06:43.414Z,2.80
2023-05-03T14:12:46.319Z,3.28
2023-05-03T14:18:53.278Z,2.90
2023-05-03T14:24:55.617Z,3.25
2023-05-03T14:30:58.258Z,2.80
2023-05-03T14:37:00.801Z,3.08
2023-05-03T14:43:02.846Z,3.25
2023-05-03T14:49:05.310Z,2.55
2023-05-03T14:55:08.794Z,2.90
2023-05-03T15:01:22.659Z,3.17
2023-05-03T15:07:25.467Z,3.35
2023-05-03T15:13:27.988Z,2.92
2023-05-03T15:19:30.808Z,3.25
2023-05-03T15:25:33.306Z,2.80
2023-05-03T15:31:36.633Z,2.50
2023-05-03T15:37:39.143Z,2.88
2023-05-03T15:43:41.367Z,2.92
2023-05-03T15:49:43.808Z,2.55
2023-05-03T15:55:47.336Z,2.53
2023-05-03T16:01:49.860Z,2.40
2023-05-03T16:07:52.733Z,2.60
2023-05-03T16:13:54.939Z,2.17
2023-05-03T16:19:58.006Z,2.20
2023-05-03T16:26:00.330Z,2.47
2023-05-03T16:32:04.381Z,1.90
2023-05-03T16:38:07.359Z,2.60
2023-05-03T16:44:10.368Z,2.30
2023-05-03T16:50:12.915Z,2.10
2023-05-03T16:56:15.688Z,2.10
2023-05-03T17:02:17.931Z,2.22
2023-05-03T17:08:20.064Z,2.35
2023-05-03T17:14:23.407Z,1.98
2023-05-03T17:20:26.195Z,2.28
2023-05-03T17:26:28.496Z,2.20
2023-05-03T17:32:32.323Z,2.53
2023-05-03T17:38:36.233Z,2.40
2023-05-03T17:44:38.504Z,2.65
2023-05-03T17:50:42.210Z,2.50
2023-05-03T17:56:45.182Z,2.30
2023-05-03T18:02:48.273Z,2.47
2023-05-03T18:08:50.825Z,2.50
2023-05-03T18:14:59.501Z,2.42
2023-05-03T18:21:03.465Z,1.98
2023-05-03T18:27:06.259Z,2.13
2023-05-03T18:33:08.465Z,2.40
2023-05-03T18:39:10.656Z,2.83
2023-05-03T18:45:15.505Z,2.20
2023-05-03T18:51:18.833Z,2.50
2023-05-03T18:57:21.939Z,2.67
2023-05-03T19:03:24.370Z,2.53
2023-05-03T19:09:27.228Z,2.55
2023-05-03T19:15:29.748Z,2.40
2023-05-03T19:21:32.500Z,2.72
2023-05-03T19:27:34.783Z,2.50
2023-05-03T19:33:38.226Z,2.70
2023-05-03T19:39:40.354Z,3.08
2023-05-03T19:45:42.695Z,3.35
2023-05-03T19:51:44.958Z,3.20
2023-05-03T19:57:47.950Z,3.17
2023-05-03T20:03:50.552Z,3.17
2023-05-03T20:09:52.948Z,3.20
2023-05-03T20:15:55.779Z,3.35
2023-05-03T20:21:57.916Z,3.03
2023-05-03T20:28:00.734Z,3.90
2023-05-03T20:34:02.777Z,4.15
2023-05-03T20:40:06.309Z,3.50
2023-05-03T20:46:09.283Z,3.42
2023-05-03T20:52:11.761Z,3.78
2023-05-03T20:58:15.478Z,3.20
2023-05-03T21:04:17.680Z,3.30
2023-05-03T21:10:20.295Z,3.72
2023-05-03T21:16:22.856Z,3.90
2023-05-03T21:22:25.473Z,3.92
2023-05-03T21:28:30.594Z,3.80
2023-05-03T21:34:32.686Z,4.15
2023-05-03T21:40:34.825Z,3.95
2023-05-03T21:46:37.337Z,4.05
2023-05-03T21:52:40.444Z,3.90
2023-05-03T21:58:45.394Z,4.03
2023-05-03T22:04:48.269Z,4.18
2023-05-03T22:10:50.621Z,4.38
2023-05-03T22:16:53.001Z,3.90
2023-05-03T22:22:55.308Z,4.20
2023-05-03T22:28:57.396Z,3.88
2023-05-03T22:34:59.355Z,3.95
2023-05-03T22:41:01.255Z,3.65
2023-05-03T22:47:03.141Z,4.03
2023-05-03T22:53:05.085Z,3.65
2023-05-03T22:59:06.932Z,4.10
2023-05-03T23:05:09.719Z,3.90
2023-05-03T23:11:11.736Z,4.25
2023-05-03T23:17:13.727Z,4.22
2023-05-03T23:23:16.276Z,4.28
2023-05-03T23:29:20.257Z,3.85
2023-05-03T23:35:22.628Z,3.88
2023-05-03T23:41:26.282Z,4.40
2023-05-03T23:47:30.438Z,4.07
2023-05-03T23:53:32.294Z,4.03
2023-05-03T23:59:34.159Z,4.50
